Time;durP1;ratioP1;P1;durP2;ratioP2;P2;SDS_P1;SDS_P2;PMS_P1;PMS_P2;Temp;Humidity;BMP_temperature;BMP_pressure;BME280_temperature;BME280_humidity;BME280_pressure;Samples;Min_cycle;Max_cycle;Signal;HPM_P1;HPM_P2
2023/07/05 00:00:05;;;;;;;2.25;1.65;;;;;;;15.76;100.00;95583.25;1043107;28;20075;-73
2023/07/05 00:00:36;;;;;;;2.38;1.40;;;;;;;15.75;100.00;95576.38;1043750;28;20112;-72
2023/07/05 00:01:06;;;;;;;6.20;1.60;;;;;;;15.76;100.00;95583.25;1046600;28;20020;-72
2023/07/05 00:01:37;;;;;;;3.53;1.33;;;;;;;15.78;100.00;95585.59;1047119;28;20095;-72
2023/07/05 00:02:07;;;;;;;3.40;1.60;;;;;;;15.77;100.00;95579.53;1047372;28;20028;-72
2023/07/05 00:02:38;;;;;;;4.53;1.60;;;;;;;15.80;100.00;95580.78;1051225;28;20356;-72
2023/07/05 00:03:08;;;;;;;3.03;1.67;;;;;;;15.79;100.00;95582.66;1055709;28;20023;-73
2023/07/05 00:03:38;;;;;;;2.17;1.20;;;;;;;15.79;100.00;95577.38;1055674;28;20027;-72
2023/07/05 00:04:09;;;;;;;2.15;1.45;;;;;;;15.78;100.00;95575.78;1055630;28;20019;-72
2023/07/05 00:04:39;;;;;;;3.85;1.60;;;;;;;15.79;100.00;95581.84;1048117;28;20028;-72
2023/07/05 00:05:10;;;;;;;2.03;1.50;;;;;;;15.78;100.00;95586.38;1051696;28;20048;-73
2023/07/05 00:05:40;;;;;;;1.70;1.60;;;;;;;15.77;100.00;95579.53;1051708;28;20020;-73
2023/07/05 00:06:12;;;;;;;1.92;1.60;;;;;;;15.82;100.00;95575.19;1049758;28;20016;-73
2023/07/05 00:06:42;;;;;;;1.60;1.23;;;;;;;15.82;100.00;95577.84;1046523;28;20624;-74
2023/07/05 00:07:13;;;;;;;2.10;1.73;;;;;;;15.81;100.00;95576.28;1047618;28;20108;-73
2023/07/05 00:07:43;;;;;;;2.80;1.77;;;;;;;15.81;100.00;95571.75;1047375;28;20119;-73
2023/07/05 00:08:14;;;;;;;2.70;1.40;;;;;;;15.82;100.00;95580.47;1047794;28;20024;-73
2023/07/05 00:08:44;;;;;;;2.13;1.50;;;;;;;15.82;100.00;95577.84;1047435;28;20029;-73
2023/07/05 00:09:15;;;;;;;2.50;1.50;;;;;;;15.84;100.00;95570.38;1047635;28;20097;-71
2023/07/05 00:09:45;;;;;;;3.80;1.40;;;;;;;15.84;100.00;95583.63;1047563;28;20471;-73
2023/07/05 00:10:16;;;;;;;1.83;1.45;;;;;;;15.83;100.00;95574.09;1047665;28;20032;-72
2023/07/05 00:10:46;;;;;;;3.00;1.83;;;;;;;15.85;100.00;95577.22;1047582;28;20039;-74
2023/07/05 00:11:17;;;;;;;1.40;1.30;;;;;;;15.86;100.00;95581.44;1046738;28;20040;-73
2023/07/05 00:11:47;;;;;;;3.03;1.83;;;;;;;15.87;100.00;95575.09;1047679;28;20036;-73
2023/07/05 00:12:18;;;;;;;1.65;1.30;;;;;;;15.87;100.00;95578.50;1047622;28;20048;-73
2023/07/05 00:12:48;;;;;;;1.77;1.30;;;;;;;15.88;100.00;95576.63;1047338;28;20067;-72
2023/07/05 00:13:19;;;;;;;3.20;1.98;;;;;;;15.87;100.00;95572.44;1047672;28;20029;-72
2023/07/05 00:13:49;;;;;;;2.17;1.30;;;;;;;15.87;100.00;95578.50;1047702;28;20032;-73
2023/07/05 00:14:20;;;;;;;2.00;1.67;;;;;;;15.87;100.00;95573.22;1047312;28;20506;-73
2023/07/05 00:14:50;;;;;;;2.00;1.42;;;;;;;15.87;100.00;95577.72;1047097;28;20036;-72
2023/07/05 00:15:20;;;;;;;3.72;1.60;;;;;;;15.87;100.00;95567.91;1043072;28;20074;-73
2023/07/05 00:15:51;;;;;;;2.42;1.45;;;;;;;15.88;100.00;95576.63;1039014;28;20403;-73
2023/07/05 00:16:22;;;;;;;4.10;1.90;;;;;;;15.87;100.00;95575.84;1038882;28;20040;-72
2023/07/05 00:16:52;;;;;;;7.43;2.00;;;;;;;15.88;100.00;95579.28;1039241;28;20025;-73
2023/07/05 00:17:22;;;;;;;2.40;1.70;;;;;;;15.88;100.00;95581.94;1047152;28;20032;-74
2023/07/05 00:17:53;;;;;;;2.55;1.30;;;;;;;15.86;100.00;95576.16;1047469;28;20111;-73
2023/07/05 00:18:23;;;;;;;2.63;1.65;;;;;;;15.86;100.00;95579.59;1047545;28;20066;-73
2023/07/05 00:18:56;;;;;;;2.70;1.40;;;;;;;15.86;100.00;95579.59;1051388;28;20020;-73
2023/07/05 00:19:26;;;;;;;2.28;1.60;;;;;;;15.74;100.00;95561.59;1047086;28;20028;-71
2023/07/05 00:19:57;;;;;;;2.55;1.45;;;;;;;15.88;100.00;95574.00;1047077;28;20033;-73
2023/07/05 00:20:27;;;;;;;2.70;1.65;;;;;;;15.87;100.00;95573.22;1042940;28;20514;-72
2023/07/05 00:20:59;;;;;;;2.20;1.60;;;;;;;15.87;100.00;95580.38;1043034;28;20486;-73
2023/07/05 00:21:30;;;;;;;2.90;1.60;;;;;;;15.88;100.00;95574.00;1050995;28;20028;-73
2023/07/05 00:22:01;;;;;;;2.33;1.50;;;;;;;15.89;100.00;95575.53;1043037;28;20029;-73
2023/07/05 00:22:31;;;;;;;1.92;1.40;;;;;;;15.89;100.00;95576.31;1043201;28;20063;-72
2023/07/05 00:23:02;;;;;;;1.33;1.23;;;;;;;15.90;100.00;95574.47;1043063;28;20029;-73
2023/07/05 00:23:33;;;;;;;4.28;1.50;;;;;;;15.90;100.00;95582.44;1042418;28;20032;-73
2023/07/05 00:24:04;;;;;;;2.22;1.50;;;;;;;15.91;100.00;95578.69;1047440;28;20020;-72
2023/07/05 00:24:34;;;;;;;2.03;1.60;;;;;;;15.91;100.00;95587.41;1051380;28;20717;-73
2023/07/05 00:25:05;;;;;;;5.95;2.50;;;;;;;15.93;100.00;95582.59;1051427;28;20062;-71
2023/07/05 00:25:36;;;;;;;3.25;1.40;;;;;;;15.94;100.00;95593.97;1054634;28;20024;-71
2023/07/05 00:26:06;;;;;;;3.20;1.30;;;;;;;15.95;100.00;95592.88;1047604;28;20032;-72
2023/07/05 00:26:37;;;;;;;2.67;1.55;;;;;;;15.95;100.00;95591.00;1047423;28;20020;-74
2023/07/05 00:27:07;;;;;;;1.92;1.60;;;;;;;15.97;100.00;95596.03;1047434;28;20035;-73
2023/07/05 00:27:38;;;;;;;1.80;1.40;;;;;;;15.98;100.00;95605.50;1047365;28;20028;-73
2023/07/05 00:28:08;;;;;;;6.28;2.00;;;;;;;15.99;100.00;95612.38;1047083;28;20070;-72
2023/07/05 00:28:39;;;;;;;1.95;1.58;;;;;;;15.99;100.00;95618.44;1046925;28;20025;-71
2023/07/05 00:29:09;;;;;;;4.75;1.73;;;;;;;16.00;100.00;95621.88;1047257;28;20021;-73
2023/07/05 00:29:40;;;;;;;2.17;1.38;;;;;;;16.01;100.00;95626.09;1047043;28;20025;-72
2023/07/05 00:30:10;;;;;;;3.67;1.52;;;;;;;16.01;100.00;95637.44;1047525;28;20039;-72
2023/07/05 00:30:42;;;;;;;3.67;2.17;;;;;;;16.04;100.00;95665.19;1047295;28;20032;-72
2023/07/05 00:31:13;;;;;;;2.97;1.80;;;;;;;16.04;100.00;95673.13;1046458;28;20063;-74
2023/07/05 00:31:43;;;;;;;2.30;1.77;;;;;;;16.02;100.00;95673.41;1046980;28;20024;-72
2023/07/05 00:32:14;;;;;;;3.25;1.75;;;;;;;16.02;100.00;95675.28;1047068;28;20020;-73
2023/07/05 00:32:44;;;;;;;5.40;2.20;;;;;;;16.01;100.00;95668.44;1047330;28;20520;-72
2023/07/05 00:33:15;;;;;;;2.60;1.60;;;;;;;16.00;100.00;95683.53;1047495;28;20025;-72
2023/07/05 00:33:46;;;;;;;3.33;1.77;;;;;;;16.00;100.00;95659.72;1047016;28;20123;-72
2023/07/05 00:34:16;;;;;;;3.03;1.77;;;;;;;15.99;100.00;95658.13;1047211;28;20036;-73
2023/07/05 00:34:47;;;;;;;4.03;1.85;;;;;;;16.01;100.00;95663.91;1047182;28;20035;-72
2023/07/05 00:35:17;;;;;;;3.35;1.52;;;;;;;16.02;100.00;95660.19;1043022;28;20639;-74
2023/07/05 00:35:49;;;;;;;1.42;1.13;;;;;;;15.97;100.00;95651.59;1042886;28;20043;-74
2023/07/05 00:36:19;;;;;;;2.95;1.83;;;;;;;16.07;100.00;95663.81;1034888;28;20028;-74
2023/07/05 00:36:50;;;;;;;5.43;1.77;;;;;;;16.07;100.00;95672.53;1035380;28;20033;-73
2023/07/05 00:37:20;;;;;;;2.70;1.60;;;;;;;16.08;100.00;95668.03;1042843;28;20044;-73
2023/07/05 00:37:51;;;;;;;1.92;1.67;;;;;;;16.09;100.00;95675.66;1043264;28;20033;-72
2023/07/05 00:38:21;;;;;;;2.38;1.50;;;;;;;16.09;100.00;95678.31;1051321;28;20063;-72
2023/07/05 00:38:52;;;;;;;3.17;1.65;;;;;;;16.12;100.00;95680.34;1050257;28;20392;-72
2023/07/05 00:39:23;;;;;;;1.65;1.45;;;;;;;16.11;100.00;95678.03;1047101;28;20024;-72
2023/07/05 00:39:53;;;;;;;1.92;1.45;;;;;;;16.11;100.00;95673.50;1047411;28;20482;-72
2023/07/05 00:40:24;;;;;;;2.15;1.50;;;;;;;16.13;100.00;95670.53;1047425;28;20024;-72
2023/07/05 00:40:54;;;;;;;2.10;1.17;;;;;;;16.15;100.00;95674.47;1046517;28;20082;-71
2023/07/05 00:41:24;;;;;;;3.05;1.48;;;;;;;16.15;100.00;95674.47;1046220;28;20032;-72
2023/07/05 00:41:55;;;;;;;2.50;1.40;;;;;;;16.17;100.00;95677.59;1047053;28;20462;-72
2023/07/05 00:42:26;;;;;;;1.88;1.60;;;;;;;16.17;100.00;95674.97;1047003;28;20025;-71
2023/07/05 00:42:56;;;;;;;2.30;1.55;;;;;;;16.18;100.00;95673.88;1047536;28;20078;-71
2023/07/05 00:43:27;;;;;;;3.13;1.50;;;;;;;16.19;100.00;95677.28;1047607;28;20036;-69
2023/07/05 00:43:57;;;;;;;3.08;1.70;;;;;;;16.18;100.00;95671.22;1047504;28;20040;-72
2023/07/05 00:44:28;;;;;;;1.80;1.48;;;;;;;16.21;100.00;95678.56;1047150;28;20742;-73
2023/07/05 00:45:10;;;;;;;1.55;1.45;;;;;;;16.23;100.00;95679.06;1047250;28;20079;-73
2023/07/05 00:46:00;;;;;;;2.45;1.73;;;;;;;16.23;100.00;95675.59;1047168;28;20850;-71
2023/07/05 00:46:31;;;;;;;3.10;1.92;;;;;;;16.11;100.00;95657.63;1042958;28;20033;-72
2023/07/05 00:47:23;;;;;;;2.53;1.67;;;;;;;16.29;100.00;95673.63;1047240;28;20477;-71
2023/07/05 00:47:53;;;;;;;3.35;1.60;;;;;;;16.32;100.00;95670.38;1043091;28;20083;-72
2023/07/05 00:48:28;;;;;;;2.45;1.55;;;;;;;16.31;100.00;95671.47;1043055;28;20028;-72
2023/07/05 00:49:03;;;;;;;3.83;1.50;;;;;;;16.35;100.00;95672.44;1035293;28;20029;-71
2023/07/05 00:49:33;;;;;;;2.78;1.77;;;;;;;16.37;100.00;95670.28;1037490;28;20018;-71
2023/07/05 00:50:26;;;;;;;3.30;1.58;;;;;;;16.38;100.00;95669.19;1036155;28;20544;-73
2023/07/05 00:50:57;;;;;;;1.92;1.73;;;;;;;16.39;100.00;95676.81;1034631;28;20076;-71
2023/07/05 00:51:45;;;;;;;2.03;1.55;;;;;;;16.38;100.00;95672.63;1026322;28;20031;-73
2023/07/05 00:52:16;;;;;;;3.45;1.58;;;;;;;16.40;100.00;95675.75;1035476;28;20021;-73
2023/07/05 00:52:47;;;;;;;2.40;1.65;;;;;;;16.43;100.00;95675.16;1044948;28;20103;-74
2023/07/05 00:53:17;;;;;;;3.15;2.05;;;;;;;16.33;100.00;95661.34;1052396;28;20029;-71
2023/07/05 00:53:48;;;;;;;2.67;2.20;;;;;;;16.45;100.00;95677.50;1043294;28;20485;-72
2023/07/05 00:54:22;;;;;;;3.03;1.83;;;;;;;16.47;100.00;95676.13;1042822;28;20036;-72
2023/07/05 00:54:53;;;;;;;6.70;1.92;;;;;;;16.51;100.00;95684.25;1038952;28;20013;-74
2023/07/05 00:55:24;;;;;;;1.73;1.63;;;;;;;16.52;100.00;95669.91;1036454;28;20022;-72
2023/07/05 00:56:01;;;;;;;2.50;1.55;;;;;;;16.54;100.00;95674.91;1042956;28;20033;-70
2023/07/05 00:56:46;;;;;;;2.63;1.73;;;;;;;16.55;100.00;95671.97;1047177;28;20017;-72
2023/07/05 00:57:18;;;;;;;2.75;1.83;;;;;;;16.59;100.00;95672.91;1039001;28;20028;-72
2023/07/05 00:57:49;;;;;;;2.50;1.70;;;;;;;16.62;100.00;95674.97;1041855;28;20017;-73
2023/07/05 00:58:20;;;;;;;4.93;1.92;;;;;;;16.64;100.00;95680.75;1045409;28;20025;-73
2023/07/05 00:58:51;;;;;;;4.40;2.08;;;;;;;16.70;100.00;95676.13;1043497;28;20083;-73
2023/07/05 00:59:21;;;;;;;1.95;1.60;;;;;;;16.70;100.00;95681.41;1045594;28;20521;-73
2023/07/05 00:59:57;;;;;;;2.28;1.85;;;;;;;16.56;100.00;95665.56;1043133;28;20025;-74
2023/07/05 01:00:28;;;;;;;1.80;1.63;;;;;;;16.69;100.00;95677.19;1049204;28;20566;-73
2023/07/05 01:00:58;;;;;;;2.03;1.52;;;;;;;16.68;100.00;95678.28;1054269;28;20053;-73
2023/07/05 01:01:29;;;;;;;3.03;1.90;;;;;;;16.55;100.00;95656.06;1051090;28;20032;-74
2023/07/05 01:01:59;;;;;;;3.38;1.70;;;;;;;16.67;100.00;95685.44;1047235;28;20012;-72
2023/07/05 01:02:30;;;;;;;3.13;1.80;;;;;;;16.63;100.00;95692.44;1043231;28;20441;-73
2023/07/05 01:03:01;;;;;;;2.00;1.80;;;;;;;16.68;100.00;95696.81;1046570;28;20024;-75
2023/07/05 01:03:32;;;;;;;12.32;2.33;;;;;;;16.39;100.00;95654.88;1043437;28;20585;-73
2023/07/05 01:04:04;;;;;;;5.38;1.77;;;;;;;16.65;100.00;95702.72;1047192;28;20020;-75
2023/07/05 01:04:34;;;;;;;3.70;1.90;;;;;;;16.55;100.00;95708.25;1043285;28;20021;-74
2023/07/05 01:05:05;;;;;;;4.80;2.30;;;;;;;16.46;100.00;95713.50;1043370;28;20017;-72
2023/07/05 01:05:36;;;;;;;4.43;2.00;;;;;;;16.36;100.00;95711.06;1047047;28;20020;-73
2023/07/05 01:06:08;;;;;;;9.68;2.55;;;;;;;16.23;100.00;95705.53;1043244;28;20080;-73
2023/07/05 01:06:39;;;;;;;8.02;2.58;;;;;;;16.00;100.00;95698.63;1041488;28;20017;-73
2023/07/05 01:07:10;;;;;;;5.20;2.30;;;;;;;15.85;100.00;95701.59;1042815;28;20769;-73
2023/07/05 01:07:40;;;;;;;5.15;2.20;;;;;;;15.70;100.00;95706.13;1043323;28;20029;-73
2023/07/05 01:08:11;;;;;;;5.35;2.38;;;;;;;15.58;100.00;95713.75;1047221;28;20017;-74
2023/07/05 01:08:42;;;;;;;6.57;2.33;;;;;;;15.49;100.00;95702.28;1047459;28;20584;-74
2023/07/05 01:09:12;;;;;;;6.00;2.83;;;;;;;15.40;100.00;95698.78;1047134;28;20082;-74
2023/07/05 01:09:46;;;;;;;10.05;2.60;;;;;;;15.30;100.00;95703.16;1047070;28;20819;-74
2023/07/05 01:10:19;;;;;;;5.18;2.25;;;;;;;15.18;100.00;95694.16;1047313;28;20043;-73
2023/07/05 01:10:57;;;;;;;3.85;2.30;;;;;;;15.05;100.00;95690.41;1047452;28;20440;-73
2023/07/05 01:11:40;;;;;;;4.25;2.30;;;;;;;14.93;100.00;95675.03;1046510;28;20835;-73
2023/07/05 01:12:40;;;;;;;5.85;2.40;;;;;;;14.87;100.00;95673.56;1047400;28;20911;-73
2023/07/05 01:13:28;;;;;;;3.83;2.08;;;;;;;14.72;100.00;95660.59;1038514;28;20048;-73
2023/07/05 01:14:02;;;;;;;6.63;2.15;;;;;;;14.66;100.00;95665.19;1055188;28;20041;-73
2023/07/05 01:14:35;;;;;;;5.45;2.80;;;;;;;14.65;100.00;95647.75;1054921;28;20031;-73
2023/07/05 01:15:12;;;;;;;3.47;2.25;;;;;;;14.57;100.00;95645.81;1051411;28;20546;-72
2023/07/05 01:15:57;;;;;;;3.80;1.77;;;;;;;14.57;100.00;95637.88;1047237;28;20011;-74
2023/07/05 01:16:33;;;;;;;3.97;2.03;;;;;;;14.52;100.00;95624.75;1050988;28;20022;-73
2023/07/05 01:17:22;;;;;;;3.70;1.83;;;;;;;14.60;100.00;95608.25;1051384;28;20470;-73
2023/07/05 01:18:11;;;;;;;4.60;1.73;;;;;;;14.64;100.00;95614.50;1046766;28;20024;-73
2023/07/05 01:19:17;;;;;;;3.42;1.80;;;;;;;14.40;100.00;95585.59;1049996;28;20020;-73
2023/07/05 01:19:54;;;;;;;4.15;2.10;;;;;;;14.46;100.00;95615.34;1050295;28;20017;-74
2023/07/05 01:20:52;;;;;;;1.75;1.30;;;;;;;14.48;100.00;95607.91;1046985;28;20109;-73
2023/07/05 01:21:38;;;;;;;4.55;2.00;;;;;;;14.29;100.00;95585.00;1046896;28;20024;-73
2023/07/05 01:22:26;;;;;;;2.45;1.40;;;;;;;14.42;100.00;95596.66;1045524;28;20037;-73
2023/07/05 01:23:18;;;;;;;2.55;1.23;;;;;;;14.39;100.00;95600.66;1047120;28;20600;-74
2023/07/05 01:24:24;;;;;;;5.13;1.60;;;;;;;14.38;100.00;95600.94;1047014;28;20103;-73
2023/07/05 01:25:14;;;;;;;2.50;1.42;;;;;;;14.37;100.00;95597.50;1047049;28;20565;-73
2023/07/05 01:25:55;;;;;;;6.28;1.83;;;;;;;14.37;100.00;95602.78;1047036;28;20027;-73
2023/07/05 01:26:56;;;;;;;4.28;2.10;;;;;;;14.35;100.00;95594.41;1047088;28;20672;-73
2023/07/05 01:28:04;;;;;;;9.07;2.55;;;;;;;14.32;100.00;95597.59;1047487;28;20031;-74
2023/07/05 01:28:40;;;;;;;4.85;1.65;;;;;;;14.31;100.00;95592.59;1042792;28;20025;-72
2023/07/05 01:29:30;;;;;;;3.22;1.40;;;;;;;14.29;100.00;95586.84;1042817;28;20494;-71
2023/07/05 01:30:16;;;;;;;3.15;1.65;;;;;;;14.27;100.00;95587.13;1042893;28;20824;-73
2023/07/05 01:31:11;;;;;;;2.50;1.63;;;;;;;14.27;100.00;95589.75;1051299;28;20580;-73
2023/07/05 01:31:46;;;;;;;2.63;1.52;;;;;;;14.27;100.00;95595.03;1051453;28;20385;-73
2023/07/05 01:32:21;;;;;;;3.88;1.73;;;;;;;14.26;100.00;95593.47;1051096;28;20024;-73
2023/07/05 01:32:57;;;;;;;4.47;1.40;;;;;;;14.27;100.00;95592.41;1046081;28;20445;-73
2023/07/05 01:33:43;;;;;;;2.35;1.48;;;;;;;14.27;100.00;95587.13;1047145;28;20017;-73
2023/07/05 01:34:33;;;;;;;2.17;1.55;;;;;;;14.26;100.00;95588.19;1043909;28;20188;-74
2023/07/05 01:35:26;;;;;;;3.03;1.80;;;;;;;14.26;100.00;95584.78;1051263;28;20035;-74
2023/07/05 01:35:57;;;;;;;4.05;2.65;;;;;;;14.28;100.00;95586.03;1048535;28;20017;-73
2023/07/05 01:36:27;;;;;;;5.15;2.00;;;;;;;14.27;100.00;95588.97;1042873;28;20656;-74
2023/07/05 01:36:58;;;;;;;3.25;2.03;;;;;;;14.25;100.00;95588.47;1034745;28;20026;-73
2023/07/05 01:37:40;;;;;;;5.72;1.90;;;;;;;14.25;100.00;95589.28;1034646;28;20065;-73
2023/07/05 01:38:10;;;;;;;4.13;1.48;;;;;;;14.24;100.00;95592.97;1036285;28;20026;-73
2023/07/05 01:38:40;;;;;;;2.58;1.55;;;;;;;14.25;100.00;95588.47;1041943;28;20503;-73
2023/07/05 01:39:11;;;;;;;2.13;1.48;;;;;;;14.27;100.00;95592.41;1050724;28;20020;-73
2023/07/05 01:39:42;;;;;;;2.67;0.98;;;;;;;14.28;100.00;95590.53;1051192;28;20024;-74
2023/07/05 01:40:38;;;;;;;3.42;1.50;;;;;;;14.30;100.00;95580.50;1055067;28;20015;-73
2023/07/05 01:41:09;;;;;;;5.72;1.70;;;;;;;14.31;100.00;95582.81;1042470;28;20682;-74
2023/07/05 01:41:39;;;;;;;2.67;1.63;;;;;;;14.34;100.00;95584.09;1047160;28;20017;-74
2023/07/05 01:42:10;;;;;;;1.65;1.50;;;;;;;14.34;100.00;95584.09;1047418;28;20025;-74
2023/07/05 01:42:40;;;;;;;5.53;1.98;;;;;;;14.19;100.00;95558.00;1046581;28;20504;-73
2023/07/05 01:43:12;;;;;;;4.68;1.60;;;;;;;14.32;100.00;95584.41;1042765;28;20055;-73
2023/07/05 01:43:43;;;;;;;4.32;2.08;;;;;;;14.32;100.00;95579.13;1042684;28;20081;-73
2023/07/05 01:44:13;;;;;;;4.28;1.60;;;;;;;14.31;100.00;95582.03;1046027;28;20126;-73
2023/07/05 01:44:44;;;;;;;4.25;2.33;;;;;;;14.28;100.00;95579.97;1047045;28;20513;-74
2023/07/05 01:45:15;;;;;;;3.67;1.80;;;;;;;14.31;100.00;95585.47;1042758;28;20103;-72
2023/07/05 01:46:10;;;;;;;6.70;1.90;;;;;;;14.32;100.00;95584.41;1042750;28;20033;-73
2023/07/05 01:46:52;;;;;;;9.63;2.47;;;;;;;14.31;100.00;95588.09;1041992;28;20071;-72
2023/07/05 01:47:31;;;;;;;10.10;2.03;;;;;;;14.29;100.00;95589.50;1051050;28;20031;-73
2023/07/05 01:48:17;;;;;;;8.48;1.70;;;;;;;14.29;100.00;95582.34;1051005;28;20423;-73
2023/07/05 01:49:02;;;;;;;6.82;2.20;;;;;;;14.33;100.00;95585.19;1048707;28;20021;-72
2023/07/05 01:49:48;;;;;;;11.57;2.78;;;;;;;14.28;100.00;95583.41;1050994;28;20028;-72
2023/07/05 01:50:35;;;;;;;3.55;1.80;;;;;;;14.25;100.00;95589.28;1050996;28;20036;-72
2023/07/05 01:51:32;;;;;;;2.58;1.75;;;;;;;14.25;100.00;95577.91;1050292;28;20457;-72
2023/07/05 01:52:11;;;;;;;3.60;2.30;;;;;;;14.25;100.00;95578.72;1033677;28;20034;-72
2023/07/05 01:52:53;;;;;;;4.25;1.73;;;;;;;14.26;100.00;95579.50;1049174;28;20717;-74
2023/07/05 01:53:27;;;;;;;2.58;1.80;;;;;;;14.25;100.00;95578.72;1046690;28;20104;-73
2023/07/05 01:54:10;;;;;;;4.75;1.75;;;;;;;14.25;100.00;95583.19;1042491;28;20021;-73
2023/07/05 01:55:13;;;;;;;5.43;2.13;;;;;;;14.22;100.00;95581.94;1042385;28;20029;-71
2023/07/05 01:56:12;;;;;;;5.88;1.98;;;;;;;14.19;100.00;95582.50;1027273;28;20031;-72
2023/07/05 01:56:50;;;;;;;4.85;1.70;;;;;;;14.21;100.00;95582.22;1046471;28;20031;-74
2023/07/05 01:57:26;;;;;;;7.70;2.35;;;;;;;14.20;100.00;95580.66;1043319;28;20418;-73
2023/07/05 01:58:03;;;;;;;6.60;2.20;;;;;;;14.19;100.00;95579.09;1046695;28;20017;-73
2023/07/05 01:58:35;;;;;;;4.82;2.20;;;;;;;14.13;100.00;95581.03;1046947;28;20029;-72
2023/07/05 01:59:06;;;;;;;2.67;1.80;;;;;;;14.15;100.00;95584.13;1044485;28;20025;-73
2023/07/05 01:59:39;;;;;;;6.82;2.10;;;;;;;14.03;100.00;95562.72;1048404;28;20025;-73
2023/07/05 02:00:12;;;;;;;2.60;1.50;;;;;;;14.14;100.00;95578.09;1051127;28;20102;-73
2023/07/05 02:00:43;;;;;;;1.60;1.50;;;;;;;14.13;100.00;95575.75;1045900;28;20024;-72
2023/07/05 02:01:13;;;;;;;5.28;1.85;;;;;;;14.14;100.00;95579.94;1037839;28;20068;-73
2023/07/05 02:01:44;;;;;;;12.15;2.65;;;;;;;14.13;100.00;95578.38;1043199;28;20453;-73
2023/07/05 02:02:14;;;;;;;8.10;2.15;;;;;;;14.13;100.00;95575.75;1047233;28;20058;-72
2023/07/05 02:03:05;;;;;;;2.92;1.67;;;;;;;14.12;100.00;95572.34;1050951;28;20023;-72
2023/07/05 02:03:36;;;;;;;4.90;2.08;;;;;;;13.98;100.00;95557.50;1043875;28;20534;-73
2023/07/05 02:04:09;;;;;;;2.25;1.52;;;;;;;13.99;100.00;95559.88;1049097;28;20017;-72
2023/07/05 02:04:40;;;;;;;5.20;1.70;;;;;;;14.12;100.00;95580.25;1044890;28;20025;-72
2023/07/05 02:05:10;;;;;;;5.43;2.30;;;;;;;13.99;100.00;95549.31;1043503;28;20106;-73
2023/07/05 02:05:41;;;;;;;5.72;1.70;;;;;;;14.10;100.00;95578.97;1038780;28;20037;-73
2023/07/05 02:06:11;;;;;;;1.92;1.73;;;;;;;13.95;100.00;95558.09;1039395;28;20021;-72
2023/07/05 02:06:42;;;;;;;3.55;1.75;;;;;;;14.10;100.00;95578.97;1041101;28;20016;-72
2023/07/05 02:07:13;;;;;;;8.85;2.30;;;;;;;14.09;100.00;95574.78;1038706;28;20055;-72
2023/07/05 02:07:43;;;;;;;4.35;1.70;;;;;;;14.08;100.00;95578.47;1046218;28;20114;-73
2023/07/05 02:08:14;;;;;;;2.35;1.30;;;;;;;14.07;100.00;95588.22;1046853;28;20027;-72
2023/07/05 02:08:45;;;;;;;2.75;1.38;;;;;;;14.08;100.00;95589.00;1046789;28;20032;-71
2023/07/05 02:09:16;;;;;;;4.65;1.77;;;;;;;14.06;100.00;95585.91;1050861;28;20493;-72
2023/07/05 02:09:46;;;;;;;5.68;1.42;;;;;;;14.06;100.00;95583.25;1050825;28;20032;-72
2023/07/05 02:10:17;;;;;;;3.25;2.00;;;;;;;14.09;100.00;95587.97;1050988;28;20362;-72
2023/07/05 02:10:47;;;;;;;6.28;1.85;;;;;;;14.07;100.00;95585.59;1051069;28;20443;-72
2023/07/05 02:11:18;;;;;;;4.90;2.22;;;;;;;14.07;100.00;95582.94;1050576;28;20775;-72
2023/07/05 02:11:48;;;;;;;6.38;1.92;;;;;;;14.07;100.00;95582.19;1050867;28;20032;-72
2023/07/05 02:12:19;;;;;;;3.85;2.00;;;;;;;14.09;100.00;95585.31;1050892;28;20354;-72
2023/07/05 02:12:50;;;;;;;3.90;2.13;;;;;;;14.10;100.00;95584.25;1050710;28;20039;-72
2023/07/05 02:13:20;;;;;;;3.83;1.75;;;;;;;14.11;100.00;95577.88;1046671;28;20600;-74
2023/07/05 02:13:51;;;;;;;2.67;1.80;;;;;;;14.13;100.00;95579.16;1046612;28;20028;-73
2023/07/05 02:14:21;;;;;;;6.82;1.90;;;;;;;14.14;100.00;95574.66;1046679;28;20554;-72
2023/07/05 02:14:52;;;;;;;4.72;1.73;;;;;;;14.14;100.00;95577.31;1046720;28;20044;-72
2023/07/05 02:15:22;;;;;;;5.88;1.55;;;;;;;14.14;100.00;95577.31;1059262;27;20031;-73
2023/07/05 02:15:53;;;;;;;1.42;1.33;;;;;;;14.17;100.00;95582.00;1059133;27;20026;-72
2023/07/05 02:16:23;;;;;;;1.45;1.33;;;;;;;14.16;100.00;95575.19;1059444;27;20034;-72
2023/07/05 02:16:54;;;;;;;6.90;1.80;;;;;;;14.18;100.00;95570.38;1059316;27;20662;-73
2023/07/05 02:17:24;;;;;;;2.50;1.33;;;;;;;14.19;100.00;95569.31;1051435;28;20039;-73
2023/07/05 02:17:55;;;;;;;4.63;1.77;;;;;;;14.20;100.00;95573.53;1050968;28;20032;-71
2023/07/05 02:18:29;;;;;;;3.80;1.80;;;;;;;14.17;100.00;95570.69;1051274;28;20500;-72
2023/07/05 02:18:59;;;;;;;3.28;1.80;;;;;;;14.16;100.00;95561.97;1051148;28;20028;-73
2023/07/05 02:19:30;;;;;;;2.95;2.00;;;;;;;14.15;100.00;95573.59;1059506;27;20484;-73
2023/07/05 02:20:00;;;;;;;4.18;1.40;;;;;;;14.15;100.00;95563.03;1059241;27;20031;-73
2023/07/05 02:20:31;;;;;;;3.90;1.92;;;;;;;14.16;100.00;95569.91;1051048;28;20028;-73
2023/07/05 02:21:01;;;;;;;2.45;1.55;;;;;;;14.18;100.00;95561.69;1050245;28;20032;-71
2023/07/05 02:21:32;;;;;;;4.70;1.70;;;;;;;14.19;100.00;95556.13;1046738;28;20446;-72
2023/07/05 02:22:03;;;;;;;4.10;2.20;;;;;;;14.18;100.00;95554.53;1047123;28;20684;-73
2023/07/05 02:22:33;;;;;;;3.13;1.65;;;;;;;14.18;100.00;95549.25;1046851;28;20119;-69
2023/07/05 02:23:04;;;;;;;3.05;1.88;;;;;;;14.19;100.00;95558.75;1046801;28;20021;-73
2023/07/05 02:23:34;;;;;;;8.48;1.80;;;;;;;14.19;100.00;95553.50;1047669;28;20036;-73
2023/07/05 02:24:05;;;;;;;6.80;1.65;;;;;;;14.21;100.00;95551.31;1047657;28;20032;-72
2023/07/05 02:24:35;;;;;;;2.85;1.75;;;;;;;14.22;100.00;95555.56;1047324;28;20098;-71
2023/07/05 02:25:06;;;;;;;3.08;2.20;;;;;;;14.23;100.00;95554.47;1046785;28;20039;-72
2023/07/05 02:25:37;;;;;;;3.33;2.13;;;;;;;14.25;100.00;95554.16;1042473;28;20690;-73
2023/07/05 02:26:07;;;;;;;3.60;1.80;;;;;;;14.25;100.00;95552.34;1042542;28;20025;-72
2023/07/05 02:26:38;;;;;;;2.45;2.10;;;;;;;14.25;100.00;95552.34;1042996;28;20031;-73
2023/07/05 02:27:08;;;;;;;4.57;2.47;;;;;;;14.26;100.00;95553.13;1049520;28;20024;-72
2023/07/05 02:27:39;;;;;;;2.40;1.95;;;;;;;14.26;100.00;95548.63;1051520;28;20020;-72
2023/07/05 02:28:09;;;;;;;3.40;1.80;;;;;;;14.28;100.00;95551.72;1051516;28;20069;-73
2023/07/05 02:28:40;;;;;;;4.40;2.15;;;;;;;14.29;100.00;95553.31;1051221;28;20020;-73
2023/07/05 02:29:10;;;;;;;6.75;2.28;;;;;;;14.30;100.00;95548.81;1059769;27;20094;-72
2023/07/05 02:29:41;;;;;;;3.03;2.20;;;;;;;14.29;100.00;95550.69;1059662;27;20019;-73
2023/07/05 02:30:13;;;;;;;4.97;1.95;;;;;;;14.32;100.00;95551.97;1058417;27;20030;-71
2023/07/05 02:30:43;;;;;;;7.80;2.42;;;;;;;14.31;100.00;95551.16;1058915;28;20072;-73
2023/07/05 02:31:14;;;;;;;5.22;2.63;;;;;;;14.29;100.00;95540.13;1046468;28;20234;-73
2023/07/05 02:31:44;;;;;;;2.72;2.08;;;;;;;14.29;100.00;95548.03;1046982;28;20127;-72
2023/07/05 02:32:15;;;;;;;6.68;2.30;;;;;;;14.30;100.00;95548.81;1046860;28;20036;-70
2023/07/05 02:32:45;;;;;;;3.33;2.22;;;;;;;14.30;100.00;95548.81;1047049;28;20024;-72
2023/07/05 02:33:15;;;;;;;3.50;2.38;;;;;;;14.28;100.00;95557.00;1051596;28;20397;-73
2023/07/05 02:33:46;;;;;;;6.72;2.45;;;;;;;14.26;100.00;95547.84;1051520;28;20032;-72
2023/07/05 02:34:16;;;;;;;2.78;2.30;;;;;;;14.26;100.00;95547.84;1051517;28;20028;-72
2023/07/05 02:34:47;;;;;;;5.20;2.25;;;;;;;14.23;100.00;95546.56;1051530;28;20031;-72
2023/07/05 02:35:17;;;;;;;3.83;2.95;;;;;;;14.23;100.00;95543.91;1051163;28;20020;-72
2023/07/05 02:35:48;;;;;;;4.30;2.67;;;;;;;14.23;100.00;95549.19;1047038;28;20433;-72
2023/07/05 02:36:18;;;;;;;4.03;2.38;;;;;;;14.23;100.00;95549.19;1047109;28;20078;-72
2023/07/05 02:36:49;;;;;;;6.38;2.58;;;;;;;14.22;100.00;95547.63;1047108;28;20500;-72
2023/07/05 02:37:19;;;;;;;4.22;2.78;;;;;;;14.21;100.00;95545.28;1051103;28;20020;-73
2023/07/05 02:37:50;;;;;;;4.65;2.67;;;;;;;14.19;100.00;95539.50;1051638;28;20024;-72
2023/07/05 02:38:20;;;;;;;6.72;2.88;;;;;;;14.20;100.00;95543.72;1051620;28;20024;-73